Time;durP1;ratioP1;P1;durP2;ratioP2;P2;SDS_P1;SDS_P2;PMS_P1;PMS_P2;Temp;Humidity;BMP_temperature;BMP_pressure;BME280_temperature;BME280_humidity;BME280_pressure;Samples;Min_cycle;Max_cycle;Signal;HPM_P1;HPM_P2
2023/07/03 00:00:46;;;;;;;7.85;2.30;;;12.90;47.10;;;;;;5053571;28;20061;-73
2023/07/03 00:03:14;;;;;;;13.85;2.22;;;12.80;58.50;;;;;;5052839;28;20441;-75
2023/07/03 00:05:44;;;;;;;5.47;1.80;;;12.70;56.40;;;;;;5052996;28;20118;-72
2023/07/03 00:08:11;;;;;;;8.38;1.88;;;12.70;68.20;;;;;;5053311;28;20025;-73
2023/07/03 00:10:36;;;;;;;7.82;2.05;;;12.70;76.30;;;;;;5052586;28;20062;-72
2023/07/03 00:13:03;;;;;;;7.93;2.00;;;12.70;69.40;;;;;;5052248;28;20057;-72
2023/07/03 00:15:29;;;;;;;7.28;1.88;;;12.70;77.50;;;;;;5051989;28;20020;-72
2023/07/03 00:17:54;;;;;;;7.65;2.03;;;12.70;73.40;;;;;;5052766;28;20100;-72
2023/07/03 00:20:20;;;;;;;11.25;2.70;;;12.60;76.10;;;;;;5052081;28;20033;-73
2023/07/03 00:22:47;;;;;;;10.80;1.88;;;12.70;84.40;;;;;;5051078;28;20471;-71
2023/07/03 00:25:16;;;;;;;8.88;2.55;;;12.70;76.20;;;;;;5052118;28;20056;-74
2023/07/03 00:27:42;;;;;;;8.50;2.28;;;12.60;74.60;;;;;;5051260;28;20033;-72
2023/07/03 00:30:08;;;;;;;10.98;2.47;;;12.50;76.50;;;;;;5050897;28;20135;-72
2023/07/03 00:32:34;;;;;;;11.27;2.42;;;12.50;81.00;;;;;;5052081;28;20020;-72
2023/07/03 00:34:59;;;;;;;7.22;1.70;;;12.60;83.20;;;;;;5052185;28;20043;-72
2023/07/03 00:37:26;;;;;;;13.90;2.40;;;12.60;76.10;;;;;;5051946;28;20029;-71
2023/07/03 00:39:51;;;;;;;8.40;2.10;;;12.60;78.30;;;;;;5052138;28;20370;-71
2023/07/03 00:42:17;;;;;;;10.60;2.30;;;12.60;83.10;;;;;;5051573;28;20135;-72
2023/07/03 00:44:43;;;;;;;9.55;2.22;;;12.50;77.30;;;;;;5052008;28;20029;-72
2023/07/03 00:47:11;;;;;;;12.45;2.58;;;12.50;75.40;;;;;;5052170;28;20590;-72
2023/07/03 00:49:37;;;;;;;12.10;2.10;;;12.50;80.60;;;;;;5051853;28;20154;-72
2023/07/03 00:52:04;;;;;;;9.95;2.40;;;12.50;70.70;;;;;;5052381;28;20032;-72
2023/07/03 00:54:30;;;;;;;8.07;1.80;;;12.50;67.90;;;;;;5051904;28;20114;-72
2023/07/03 00:56:56;;;;;;;10.20;2.17;;;12.50;73.00;;;;;;5052222;28;20029;-72
2023/07/03 00:59:22;;;;;;;15.52;2.70;;;12.50;69.90;;;;;;5051545;28;20118;-73
2023/07/03 01:01:50;;;;;;;12.85;2.72;;;12.50;56.80;;;;;;5052279;28;20108;-72
2023/07/03 01:04:22;;;;;;;11.13;2.55;;;12.40;54.00;;;;;;5051576;28;20040;-74
2023/07/03 01:07:01;;;;;;;11.60;2.22;;;12.30;72.90;;;;;;5052041;28;20116;-72
2023/07/03 01:09:35;;;;;;;10.80;2.88;;;12.30;67.50;;;;;;5051782;28;20025;-72
2023/07/03 01:12:01;;;;;;;12.63;2.38;;;12.20;69.70;;;;;;5052121;28;20025;-72
2023/07/03 01:14:28;;;;;;;9.35;2.08;;;12.20;70.30;;;;;;5050846;28;20025;-72
2023/07/03 01:16:56;;;;;;;11.63;2.08;;;12.20;68.90;;;;;;5051867;28;20035;-72
2023/07/03 01:19:30;;;;;;;10.80;2.22;;;12.20;74.70;;;;;;5050970;28;20107;-72
2023/07/03 01:22:05;;;;;;;7.82;2.03;;;12.10;70.60;;;;;;5051795;28;20053;-72
2023/07/03 01:24:43;;;;;;;7.47;2.25;;;12.00;86.10;;;;;;5050690;28;20039;-72
2023/07/03 01:27:12;;;;;;;12.15;2.33;;;12.00;87.30;;;;;;5051172;28;20033;-72
2023/07/03 01:29:40;;;;;;;9.27;2.30;;;12.00;87.00;;;;;;5050508;28;20053;-72
2023/07/03 01:32:09;;;;;;;11.88;2.15;;;11.90;91.80;;;;;;5051521;28;20063;-71
2023/07/03 01:34:39;;;;;;;10.27;2.50;;;11.90;93.30;;;;;;5050695;28;20406;-72
2023/07/03 01:37:06;;;;;;;11.93;2.70;;;11.80;95.30;;;;;;5051555;28;20035;-72
2023/07/03 01:39:32;;;;;;;13.90;2.70;;;11.80;99.90;;;;;;5051115;28;20162;-72
2023/07/03 01:41:59;;;;;;;9.32;2.17;;;11.80;99.90;;;;;;5051158;28;20453;-72
2023/07/03 01:44:24;;;;;;;10.43;2.40;;;11.80;99.90;;;;;;5050338;28;20113;-73
2023/07/03 01:46:50;;;;;;;13.77;2.00;;;11.80;99.90;;;;;;5050237;28;20363;-72
2023/07/03 01:49:16;;;;;;;9.73;2.50;;;11.70;99.90;;;;;;5050551;28;20033;-72
2023/07/03 01:52:00;;;;;;;9.15;2.35;;;11.70;99.90;;;;;;5050352;28;20035;-72
2023/07/03 01:54:35;;;;;;;15.43;2.63;;;11.80;99.90;;;;;;5050327;28;20020;-72
2023/07/03 01:57:02;;;;;;;13.38;2.35;;;11.80;99.90;;;;;;5049574;28;20465;-72
2023/07/03 01:59:30;;;;;;;11.23;2.38;;;11.80;99.90;;;;;;5050211;28;20112;-72
2023/07/03 02:02:01;;;;;;;8.23;2.10;;;11.90;99.90;;;;;;5051147;28;20032;-72
2023/07/03 02:04:31;;;;;;;9.57;2.95;;;11.90;99.90;;;;;;5049898;28;20439;-71
2023/07/03 02:06:58;;;;;;;10.18;2.22;;;11.90;99.90;;;;;;5049796;28;20103;-72
2023/07/03 02:09:25;;;;;;;9.77;2.05;;;12.00;99.90;;;;;;5049961;28;20063;-72
2023/07/03 02:11:52;;;;;;;12.23;2.40;;;12.00;99.90;;;;;;5050224;28;20475;-72
2023/07/03 02:14:18;;;;;;;14.30;2.85;;;12.00;99.90;;;;;;5050127;28;20036;-72
2023/07/03 02:16:47;;;;;;;8.65;2.00;;;12.10;99.90;;;;;;5050044;28;20017;-72
2023/07/03 02:19:16;;;;;;;11.25;2.10;;;12.10;99.90;;;;;;5050565;28;20111;-72
2023/07/03 02:21:45;;;;;;;12.45;2.30;;;12.00;99.90;;;;;;5049958;28;20036;-71
2023/07/03 02:24:12;;;;;;;7.68;1.85;;;12.00;99.90;;;;;;5050521;28;20041;-72
2023/07/03 02:26:38;;;;;;;11.60;2.45;;;12.00;99.90;;;;;;5049926;28;20071;-72
2023/07/03 02:29:04;;;;;;;17.73;3.20;;;12.10;99.90;;;;;;5050348;28;20053;-72
2023/07/03 02:31:29;;;;;;;14.65;2.45;;;12.10;99.90;;;;;;5049789;28;20422;-72
2023/07/03 02:33:55;;;;;;;10.10;2.30;;;12.10;99.90;;;;;;5050802;28;20044;-72
2023/07/03 02:36:24;;;;;;;13.00;2.53;;;12.00;99.90;;;;;;5050089;28;20025;-73
2023/07/03 02:38:50;;;;;;;12.95;2.20;;;12.10;99.90;;;;;;5050704;28;20060;-72
2023/07/03 02:41:15;;;;;;;10.80;2.47;;;12.10;99.90;;;;;;5050240;28;20544;-71
2023/07/03 02:43:41;;;;;;;8.82;2.10;;;12.00;99.90;;;;;;5049631;28;20037;-71
2023/07/03 02:46:08;;;;;;;8.93;2.42;;;12.00;99.90;;;;;;5049711;28;20048;-72
2023/07/03 02:48:34;;;;;;;12.60;2.10;;;12.00;99.90;;;;;;5049945;28;20021;-72
2023/07/03 02:50:59;;;;;;;13.32;2.63;;;12.10;99.90;;;;;;5048767;28;20112;-72
2023/07/03 02:53:25;;;;;;;13.60;2.90;;;12.10;99.90;;;;;;5049580;28;20447;-72
2023/07/03 02:55:54;;;;;;;14.98;2.47;;;12.20;99.90;;;;;;5050466;28;20090;-73
2023/07/03 02:58:19;;;;;;;10.02;2.08;;;12.20;99.90;;;;;;5049473;28;20021;-71
2023/07/03 03:00:46;;;;;;;17.00;2.47;;;12.20;99.90;;;;;;5053826;28;20087;-72
2023/07/03 03:03:13;;;;;;;12.98;3.17;;;12.20;99.90;;;;;;5054032;28;20037;-71
2023/07/03 03:05:39;;;;;;;10.32;2.10;;;12.20;99.90;;;;;;5053598;28;20112;-72
2023/07/03 03:08:07;;;;;;;11.77;2.67;;;12.20;99.90;;;;;;5052736;28;20139;-72
2023/07/03 03:10:33;;;;;;;11.55;2.10;;;12.20;99.90;;;;;;5053392;28;20071;-72
2023/07/03 03:12:59;;;;;;;11.13;2.55;;;12.20;99.90;;;;;;5054297;28;20060;-71
2023/07/03 03:15:26;;;;;;;14.30;2.40;;;12.30;99.90;;;;;;5053231;28;20074;-74
2023/07/03 03:17:52;;;;;;;9.77;2.50;;;12.20;99.90;;;;;;5053912;28;20087;-71
2023/07/03 03:20:18;;;;;;;10.25;2.17;;;12.20;99.90;;;;;;5054012;28;20032;-71
2023/07/03 03:22:44;;;;;;;12.68;2.88;;;12.20;99.90;;;;;;5053092;28;20100;-72
2023/07/03 03:25:10;;;;;;;9.00;2.13;;;12.20;99.90;;;;;;5053587;28;20108;-71
2023/07/03 03:27:35;;;;;;;9.18;2.20;;;12.20;99.90;;;;;;5052090;28;20036;-71
2023/07/03 03:30:01;;;;;;;14.93;2.80;;;12.10;99.90;;;;;;5053904;28;20060;-72
2023/07/03 03:32:27;;;;;;;12.07;2.58;;;12.10;99.90;;;;;;5053010;28;20021;-72
2023/07/03 03:34:55;;;;;;;9.65;2.38;;;12.00;99.90;;;;;;5053237;28;20052;-72
2023/07/03 03:37:21;;;;;;;9.88;2.63;;;12.00;99.90;;;;;;5053675;28;20031;-72
2023/07/03 03:39:47;;;;;;;13.40;2.78;;;12.00;99.90;;;;;;5053215;28;20343;-72
2023/07/03 03:42:13;;;;;;;16.10;2.38;;;12.00;99.90;;;;;;5053480;28;20031;-72
2023/07/03 03:44:38;;;;;;;12.35;2.50;;;12.00;99.90;;;;;;5053069;28;20397;-72
2023/07/03 03:47:04;;;;;;;15.55;2.55;;;12.10;99.90;;;;;;5053015;28;20025;-72
2023/07/03 03:49:31;;;;;;;10.38;2.40;;;12.10;99.90;;;;;;5052876;28;20029;-72
2023/07/03 03:51:56;;;;;;;17.80;3.00;;;12.10;99.90;;;;;;5053416;28;20029;-71
2023/07/03 03:54:22;;;;;;;14.43;2.40;;;12.20;99.90;;;;;;5053745;28;20025;-72
2023/07/03 03:56:48;;;;;;;7.95;2.20;;;12.20;99.90;;;;;;5052341;28;20025;-72
2023/07/03 03:59:14;;;;;;;10.70;2.80;;;12.20;99.90;;;;;;5053239;28;20100;-72
2023/07/03 04:01:42;;;;;;;10.20;2.30;;;12.30;99.90;;;;;;5052875;28;20031;-72
2023/07/03 04:04:07;;;;;;;12.30;2.33;;;12.20;99.90;;;;;;5053171;28;20141;-72
2023/07/03 04:06:35;;;;;;;9.50;2.10;;;12.20;99.90;;;;;;5052686;28;20095;-72
2023/07/03 04:09:01;;;;;;;10.43;2.35;;;12.20;99.90;;;;;;5053115;28;20052;-71
2023/07/03 04:11:28;;;;;;;10.45;2.67;;;12.20;99.90;;;;;;5052024;28;20032;-73
2023/07/03 04:13:54;;;;;;;10.95;2.70;;;12.20;99.90;;;;;;5052835;28;20112;-71
2023/07/03 04:16:20;;;;;;;11.95;2.60;;;12.30;99.90;;;;;;5052736;28;20055;-71
2023/07/03 04:18:46;;;;;;;10.05;2.30;;;12.30;99.90;;;;;;5050908;28;20040;-71
2023/07/03 04:21:12;;;;;;;14.70;2.75;;;12.30;99.90;;;;;;5052976;28;20029;-71
2023/07/03 04:23:38;;;;;;;9.85;2.28;;;12.30;99.90;;;;;;5052155;28;20043;-71
2023/07/03 04:26:04;;;;;;;11.98;2.25;;;12.20;99.90;;;;;;5052984;28;20029;-71
2023/07/03 04:28:30;;;;;;;12.50;2.20;;;12.30;99.90;;;;;;5051863;28;20052;-74
2023/07/03 04:30:56;;;;;;;7.63;1.77;;;12.30;99.90;;;;;;5052578;28;20386;-71
2023/07/03 04:33:22;;;;;;;7.72;1.77;;;12.40;99.90;;;;;;5052563;28;20037;-71
2023/07/03 04:35:48;;;;;;;10.75;2.40;;;12.40;99.90;;;;;;5051899;28;20090;-72
2023/07/03 04:38:18;;;;;;;9.55;2.28;;;12.30;99.90;;;;;;5052597;28;20497;-71
2023/07/03 04:40:44;;;;;;;11.35;2.17;;;12.30;99.90;;;;;;5052008;28;20411;-71
2023/07/03 04:43:11;;;;;;;10.32;2.17;;;12.30;99.90;;;;;;5052624;28;20025;-71
2023/07/03 04:45:49;;;;;;;11.82;2.08;;;12.30;99.90;;;;;;5052601;28;20334;-72
2023/07/03 04:48:16;;;;;;;8.23;2.63;;;12.30;99.90;;;;;;5052501;28;20458;-71
2023/07/03 04:50:43;;;;;;;9.13;2.00;;;12.30;99.90;;;;;;5051961;28;20036;-72
2023/07/03 04:53:09;;;;;;;12.90;2.10;;;12.30;99.90;;;;;;5052325;28;20029;-71
2023/07/03 04:55:35;;;;;;;10.80;2.25;;;12.20;99.90;;;;;;5051492;28;20025;-72
2023/07/03 04:58:02;;;;;;;8.02;2.28;;;12.20;99.90;;;;;;5052171;28;20118;-72
2023/07/03 05:00:28;;;;;;;12.82;2.20;;;12.20;99.90;;;;;;5051916;28;20058;-72
2023/07/03 05:02:58;;;;;;;7.90;2.00;;;12.20;99.90;;;;;;5051441;28;20123;-72
2023/07/03 05:05:24;;;;;;;8.40;2.00;;;12.20;99.90;;;;;;5052067;28;20184;-73
2023/07/03 05:07:50;;;;;;;7.95;2.30;;;12.10;99.90;;;;;;5051066;28;20469;-73
2023/07/03 05:10:17;;;;;;;12.65;2.65;;;12.10;99.90;;;;;;5051621;28;20104;-73
2023/07/03 05:12:44;;;;;;;10.63;2.42;;;12.00;99.90;;;;;;5051244;28;20032;-74
2023/07/03 05:15:12;;;;;;;8.18;2.53;;;12.00;99.90;;;;;;5051669;28;20040;-74
2023/07/03 05:17:39;;;;;;;6.47;2.00;;;12.00;99.90;;;;;;5050736;28;20075;-74
2023/07/03 05:20:08;;;;;;;8.68;2.60;;;12.00;99.90;;;;;;5051742;28;20033;-76
2023/07/03 05:22:35;;;;;;;12.18;2.83;;;12.00;99.90;;;;;;5050231;28;20068;-75
2023/07/03 05:25:01;;;;;;;7.75;2.58;;;12.00;99.90;;;;;;5051267;28;20037;-74
2023/07/03 05:27:27;;;;;;;11.18;2.75;;;12.00;99.90;;;;;;5051642;28;20117;-75
2023/07/03 05:29:53;;;;;;;10.00;2.70;;;12.00;99.90;;;;;;5051016;28;20089;-75
2023/07/03 05:32:18;;;;;;;9.70;2.80;;;11.90;99.90;;;;;;5051431;28;20025;-77
2023/07/03 05:34:44;;;;;;;7.20;2.13;;;11.90;99.90;;;;;;5050761;28;20029;-77
2023/07/03 05:37:10;;;;;;;11.15;3.22;;;11.90;99.90;;;;;;5051311;28;20104;-78
2023/07/03 05:39:35;;;;;;;12.75;2.85;;;11.90;99.90;;;;;;5051139;28;20040;-75
2023/07/03 05:42:01;;;;;;;15.52;3.03;;;11.90;99.90;;;;;;5051105;28;20025;-74
2023/07/03 05:44:27;;;;;;;11.82;2.85;;;12.00;99.90;;;;;;5051096;28;20032;-73
2023/07/03 05:46:53;;;;;;;7.72;2.50;;;12.00;99.90;;;;;;5050658;28;20021;-73
2023/07/03 05:49:19;;;;;;;13.88;3.25;;;12.00;99.90;;;;;;5050566;28;20124;-72
2023/07/03 05:51:45;;;;;;;13.40;3.08;;;12.00;99.90;;;;;;5050494;28;20427;-73
2023/07/03 05:54:10;;;;;;;8.98;2.80;;;12.00;99.90;;;;;;5051147;28;20443;-75
2023/07/03 05:56:36;;;;;;;11.15;2.58;;;12.00;99.90;;;;;;5049253;28;20072;-75
2023/07/03 05:59:02;;;;;;;14.10;2.70;;;12.00;99.90;;;;;;5050873;28;20051;-74
2023/07/03 06:01:28;;;;;;;11.98;3.17;;;12.00;99.90;;;;;;5051095;28;20075;-74
2023/07/03 06:03:53;;;;;;;12.15;3.25;;;12.10;99.90;;;;;;5049030;28;20037;-74
2023/07/03 06:06:19;;;;;;;10.13;2.78;;;12.20;99.90;;;;;;5050643;28;20055;-74
2023/07/03 06:08:45;;;;;;;10.82;2.70;;;12.20;99.90;;;;;;5050140;28;20049;-77
2023/07/03 06:11:12;;;;;;;5.00;2.33;;;12.20;99.90;;;;;;5049569;28;20072;-76
2023/07/03 06:13:38;;;;;;;8.57;2.53;;;12.20;99.90;;;;;;5050340;28;20049;-77
2023/07/03 06:16:03;;;;;;;13.93;3.15;;;12.20;99.90;;;;;;5050891;28;20457;-76
2023/07/03 06:18:29;;;;;;;8.55;2.72;;;12.20;99.90;;;;;;5050356;28;20032;-77
2023/07/03 06:20:55;;;;;;;9.80;2.70;;;12.30;99.90;;;;;;5050248;28;20097;-77
2023/07/03 06:23:20;;;;;;;6.38;2.30;;;12.30;99.90;;;;;;5050384;28;20433;-75
2023/07/03 06:25:46;;;;;;;9.98;2.80;;;12.20;99.90;;;;;;5050465;28;20036;-77
2023/07/03 06:28:13;;;;;;;9.52;2.63;;;12.30;99.90;;;;;;5051273;28;20541;-76
2023/07/03 06:30:39;;;;;;;8.30;2.55;;;12.10;99.90;;;;;;5049905;28;20025;-76
2023/07/03 06:33:04;;;;;;;6.88;2.15;;;12.20;99.90;;;;;;5050326;28;20040;-77
2023/07/03 06:35:30;;;;;;;9.73;2.00;;;12.20;99.90;;;;;;5050584;28;20090;-77
2023/07/03 06:37:58;;;;;;;5.25;1.92;;;12.10;99.90;;;;;;5049925;28;20029;-73
2023/07/03 06:40:24;;;;;;;7.03;2.33;;;12.10;99.90;;;;;;5050263;28;20112;-76
2023/07/03 06:42:52;;;;;;;7.55;2.08;;;12.10;99.90;;;;;;5049663;28;20454;-76
2023/07/03 06:45:18;;;;;;;6.03;2.20;;;12.00;99.90;;;;;;5050513;28;20029;-75
2023/07/03 06:47:43;;;;;;;5.13;1.67;;;12.00;99.90;;;;;;5049792;28;20850;-74
2023/07/03 06:50:10;;;;;;;6.68;1.98;;;12.00;99.90;;;;;;5049819;28;20048;-73
2023/07/03 06:52:36;;;;;;;6.22;1.80;;;12.00;99.90;;;;;;5050347;28;20442;-73
2023/07/03 06:55:04;;;;;;;7.35;1.80;;;11.90;99.90;;;;;;5049932;28;20033;-74
2023/07/03 06:57:29;;;;;;;8.20;2.58;;;11.90;99.90;;;;;;5050210;28;20025;-73
2023/07/03 06:59:55;;;;;;;6.22;2.13;;;11.90;99.90;;;;;;5049351;28;20216;-73
2023/07/03 07:02:21;;;;;;;4.90;1.90;;;11.90;99.90;;;;;;5049899;28;20120;-75
2023/07/03 07:04:47;;;;;;;7.70;2.67;;;11.90;99.90;;;;;;5049238;28;20130;-75
2023/07/03 07:07:12;;;;;;;8.13;2.60;;;11.90;99.90;;;;;;5050146;28;20033;-75
2023/07/03 07:09:38;;;;;;;9.30;2.42;;;12.00;99.90;;;;;;5049643;28;20458;-76
2023/07/03 07:12:04;;;;;;;10.30;1.88;;;12.10;99.90;;;;;;5049878;28;20109;-75
2023/07/03 07:14:30;;;;;;;11.85;3.15;;;12.10;99.90;;;;;;5049995;28;20025;-76
2023/07/03 07:16:57;;;;;;;5.22;2.00;;;12.10;99.90;;;;;;5049421;28;20107;-75
2023/07/03 07:19:23;;;;;;;5.45;1.77;;;12.20;99.90;;;;;;5049872;28;20068;-75
2023/07/03 07:21:49;;;;;;;4.30;1.70;;;12.20;99.90;;;;;;5049262;28;20105;-75
2023/07/03 07:24:20;;;;;;;7.38;2.35;;;12.30;99.90;;;;;;5049981;28;20122;-74
2023/07/03 07:26:47;;;;;;;3.83;1.55;;;12.30;99.90;;;;;;5049318;28;20431;-74
2023/07/03 07:29:13;;;;;;;4.82;1.90;;;12.40;99.90;;;;;;5049920;28;20048;-74
2023/07/03 07:31:39;;;;;;;7.55;2.38;;;12.50;99.90;;;;;;5049370;28;20195;-75
2023/07/03 07:34:06;;;;;;;5.82;2.20;;;12.70;99.90;;;;;;5049544;28;20183;-74
2023/07/03 07:36:32;;;;;;;10.32;2.63;;;12.80;99.90;;;;;;5049475;28;20465;-74
2023/07/03 07:39:00;;;;;;;6.15;2.30;;;12.90;99.90;;;;;;5049597;28;20025;-73
2023/07/03 07:41:27;;;;;;;4.95;1.73;;;13.00;99.90;;;;;;5049399;28;20028;-73
2023/07/03 07:43:54;;;;;;;6.18;2.20;;;13.00;99.90;;;;;;5047465;28;20033;-73
2023/07/03 07:46:25;;;;;;;4.97;1.70;;;13.00;99.90;;;;;;5051694;28;20478;-73
2023/07/03 07:48:50;;;;;;;8.43;2.78;;;13.10;99.90;;;;;;5052791;28;20037;-74
2023/07/03 07:51:16;;;;;;;6.07;1.90;;;13.20;99.90;;;;;;5052712;28;20021;-73
2023/07/03 07:53:42;;;;;;;6.53;1.85;;;13.30;99.90;;;;;;5052445;28;20059;-75
2023/07/03 07:56:09;;;;;;;7.05;1.98;;;13.50;99.90;;;;;;5053183;28;20056;-73
2023/07/03 07:58:35;;;;;;;5.57;1.98;;;13.50;99.90;;;;;;5053000;28;20467;-73
2023/07/03 08:01:01;;;;;;;7.78;1.80;;;13.60;99.90;;;;;;5052469;28;20124;-73
2023/07/03 08:03:28;;;;;;;4.95;1.70;;;13.70;99.90;;;;;;5052991;28;20110;-73
2023/07/03 08:06:03;;;;;;;5.68;2.13;;;13.80;99.90;;;;;;5051962;28;20398;-73
2023/07/03 08:08:30;;;;;;;6.28;1.63;;;14.00;99.90;;;;;;5052887;28;20029;-73
2023/07/03 08:10:58;;;;;;;8.18;2.22;;;14.00;99.90;;;;;;5052369;28;20035;-72
2023/07/03 08:13:25;;;;;;;4.53;1.80;;;14.10;99.90;;;;;;5052900;28;20033;-72
2023/07/03 08:15:51;;;;;;;5.18;1.88;;;14.30;99.90;;;;;;5052152;28;20025;-73
2023/07/03 08:18:17;;;;;;;5.72;1.90;;;14.40;99.90;;;;;;5052314;28;20090;-72
2023/07/03 08:20:43;;;;;;;6.38;1.60;;;14.40;99.90;;;;;;5051700;28;20036;-74
2023/07/03 08:23:09;;;;;;;5.93;1.92;;;14.50;99.90;;;;;;5052602;28;20036;-72
2023/07/03 08:25:35;;;;;;;2.92;1.30;;;14.60;99.90;;;;;;5052409;28;20037;-73
2023/07/03 08:28:00;;;;;;;6.55;2.00;;;14.60;99.90;;;;;;5051683;28;20198;-72
2023/07/03 08:30:28;;;;;;;5.40;1.70;;;14.70;99.90;;;;;;5052381;28;20420;-73
2023/07/03 08:32:54;;;;;;;4.90;1.45;;;14.70;99.90;;;;;;5051578;28;20090;-73
2023/07/03 08:35:19;;;;;;;5.50;1.70;;;14.60;99.90;;;;;;5052809;28;20040;-72
2023/07/03 08:37:45;;;;;;;3.88;1.20;;;14.70;99.90;;;;;;5052160;28;20025;-74
2023/07/03 08:40:17;;;;;;;6.00;1.77;;;14.70;99.90;;;;;;5052290;28;20029;-73
2023/07/03 08:42:54;;;;;;;5.20;1.50;;;14.80;99.90;;;;;;5052448;28;20107;-71
2023/07/03 08:45:25;;;;;;;4.07;1.38;;;14.70;99.90;;;;;;5052456;28;20116;-72
2023/07/03 08:47:53;;;;;;;3.00;1.15;;;14.60;99.90;;;;;;5051322;28;20330;-73
2023/07/03 08:50:21;;;;;;;5.13;1.90;;;14.50;99.90;;;;;;5052266;28;20020;-73
2023/07/03 08:52:56;;;;;;;3.67;1.60;;;14.30;99.90;;;;;;5051210;28;20025;-73
2023/07/03 08:55:27;;;;;;;2.13;0.95;;;14.40;99.90;;;;;;5052381;28;20470;-72
2023/07/03 08:57:53;;;;;;;1.98;1.00;;;14.50;99.90;;;;;;5051244;28;20040;-72
2023/07/03 09:00:20;;;;;;;3.83;1.48;;;14.60;99.90;;;;;;5051945;28;20029;-72
2023/07/03 09:02:56;;;;;;;2.63;1.25;;;14.90;99.90;;;;;;5051283;28;20438;-74
2023/07/03 09:05:37;;;;;;;1.98;1.00;;;15.00;99.90;;;;;;5050835;28;20037;-72
2023/07/03 09:08:06;;;;;;;2.67;1.30;;;15.30;99.90;;;;;;5051169;28;20159;-72
2023/07/03 09:10:46;;;;;;;3.47;1.30;;;15.40;99.90;;;;;;5051957;28;20029;-72
2023/07/03 09:13:15;;;;;;;3.35;1.30;;;15.40;99.90;;;;;;5051489;28;20588;-72
2023/07/03 09:15:51;;;;;;;5.50;1.42;;;15.30;99.90;;;;;;5051737;28;20078;-72
2023/07/03 09:18:22;;;;;;;2.17;1.00;;;15.50;99.90;;;;;;5051435;28;20033;-72
2023/07/03 09:20:48;;;;;;;2.28;1.25;;;15.80;99.90;;;;;;5051462;28;20028;-74
2023/07/03 09:23:25;;;;;;;2.97;1.10;;;15.80;99.90;;;;;;5051226;28;20029;-72
2023/07/03 09:25:57;;;;;;;2.58;0.90;;;15.70;99.90;;;;;;5051418;28;20064;-73
2023/07/03 09:28:23;;;;;;;1.95;1.20;;;15.60;99.90;;;;;;5051417;28;20466;-73
2023/07/03 09:30:50;;;;;;;2.72;1.40;;;15.60;99.90;;;;;;5050939;28;20082;-74
2023/07/03 09:33:16;;;;;;;3.50;1.10;;;15.70;99.90;;;;;;5051364;28;20029;-72
2023/07/03 09:35:42;;;;;;;2.03;1.17;;;16.00;99.90;;;;;;5051716;28;20434;-72
2023/07/03 09:38:37;;;;;;;5.32;1.40;;;16.10;99.90;;;;;;5051838;28;20029;-72
2023/07/03 09:41:04;;;;;;;3.83;1.17;;;16.10;99.90;;;;;;5040936;28;20033;-73
2023/07/03 09:43:30;;;;;;;2.25;1.20;;;16.10;99.90;;;;;;5051620;28;20143;-73
2023/07/03 09:46:23;;;;;;;2.53;1.48;;;16.30;99.90;;;;;;5050929;28;20040;-73
2023/07/03 09:48:50;;;;;;;3.08;1.48;;;16.20;99.90;;;;;;5048393;28;20077;-74
2023/07/03 09:51:30;;;;;;;2.83;1.30;;;16.10;99.90;;;;;;5051096;28;20025;-72
2023/07/03 09:53:57;;;;;;;3.28;1.38;;;16.20;99.90;;;;;;5050500;28;20033;-72
2023/07/03 09:56:28;;;;;;;3.90;1.70;;;16.20;99.90;;;;;;5051057;28;20033;-73
2023/07/03 09:58:59;;;;;;;2.92;1.42;;;16.40;99.90;;;;;;5050464;28;20505;-73
2023/07/03 10:01:31;;;;;;;5.25;1.15;;;16.50;99.90;;;;;;5051261;28;20043;-72
2023/07/03 10:04:04;;;;;;;3.60;1.33;;;16.50;99.90;;;;;;5049664;28;20028;-73
2023/07/03 10:06:30;;;;;;;2.53;1.10;;;16.60;99.90;;;;;;5050637;28;20125;-73
2023/07/03 10:09:02;;;;;;;2.00;1.02;;;16.90;99.90;;;;;;5049102;28;20047;-72
2023/07/03 10:11:36;;;;;;;5.32;1.40;;;17.20;99.90;;;;;;5050806;28;20055;-72
2023/07/03 10:14:05;;;;;;;2.92;1.17;;;17.40;99.90;;;;;;5049788;28;20060;-73
2023/07/03 10:16:33;;;;;;;4.40;1.40;;;17.50;99.90;;;;;;5050437;28;20088;-73
2023/07/03 10:18:59;;;;;;;4.95;1.30;;;17.60;99.90;;;;;;5049430;28;20104;-73
2023/07/03 10:21:26;;;;;;;3.40;1.50;;;17.50;99.90;;;;;;5050338;28;20029;-73
2023/07/03 10:23:54;;;;;;;5.85;1.40;;;17.50;99.90;;;;;;5050187;28;20060;-75
2023/07/03 10:26:56;;;;;;;2.25;1.33;;;17.30;3.90;;;;;;5050694;28;20040;-73
2023/07/03 10:29:37;;;;;;;4.50;1.48;;;17.30;1.00;;;;;;5049073;28;20144;-73
2023/07/03 10:32:13;;;;;;;3.63;1.33;;;17.10;1.00;;;;;;5050111;28;20071;-73
2023/07/03 10:35:10;;;;;;;3.83;1.30;;;17.00;1.00;;;;;;5051486;28;20040;-73
2023/07/03 10:37:59;;;;;;;3.97;1.27;;;17.00;1.00;;;;;;5051611;28;20056;-73
2023/07/03 10:41:15;;;;;;;1.80;1.02;;;17.20;41.70;;;;;;5051203;28;20040;-73
2023/07/03 10:43:52;;;;;;;4.03;1.23;;;17.40;27.20;;;;;;5038167;28;20048;-73
2023/07/03 10:46:53;;;;;;;3.00;0.85;;;17.70;37.10;;;;;;5049909;28;20056;-73
2023/07/03 10:49:40;;;;;;;2.90;1.23;;;17.80;13.10;;;;;;5037670;28;20037;-72
2023/07/03 10:52:20;;;;;;;2.78;1.20;;;17.90;5.00;;;;;;5050814;28;20033;-73
2023/07/03 10:55:04;;;;;;;2.25;1.00;;;17.80;1.00;;;;;;5050779;28;20045;-73
2023/07/03 10:57:55;;;;;;;3.38;1.17;;;17.80;1.00;;;;;;5051150;28;20067;-74
2023/07/03 11:00:38;;;;;;;2.40;0.95;;;17.90;1.00;;;;;;5050971;28;20540;-73
2023/07/03 11:03:23;;;;;;;4.88;0.95;;;17.90;1.00;;;;;;5050186;28;20479;-73
2023/07/03 11:06:12;;;;;;;4.13;1.25;;;17.80;1.00;;;;;;5049515;28;20029;-73
2023/07/03 11:08:56;;;;;;;2.58;0.98;;;17.90;1.00;;;;;;5050800;28;20442;-73
2023/07/03 11:11:38;;;;;;;3.80;1.50;;;17.70;1.00;;;;;;5050918;28;20037;-73
2023/07/03 11:14:16;;;;;;;2.75;1.35;;;17.80;1.00;;;;;;5050437;28;20120;-73
2023/07/03 11:16:51;;;;;;;2.17;1.00;;;17.80;1.00;;;;;;5050963;28;20040;-73
2023/07/03 11:19:44;;;;;;;3.33;1.30;;;17.90;1.00;;;;;;5048843;28;20048;-73
2023/07/03 11:22:17;;;;;;;5.00;1.40;;;17.90;99.90;;;;;;5053528;28;20021;-74
2023/07/03 11:24:54;;;;;;;3.78;1.23;;;17.90;99.90;;;;;;5053710;28;20462;-72
2023/07/03 11:27:54;;;;;;;1.23;0.93;;;17.90;99.90;;;;;;5053171;28;20029;-73
2023/07/03 11:30:20;;;;;;;3.38;1.33;;;18.10;99.90;;;;;;5053337;28;20136;-73
2023/07/03 11:32:47;;;;;;;2.40;1.05;;;18.20;99.90;;;;;;5053587;28;20087;-73
2023/07/03 11:35:14;;;;;;;3.45;1.00;;;18.30;99.90;;;;;;5053370;28;20021;-73
2023/07/03 11:37:40;;;;;;;3.70;1.30;;;18.60;99.90;;;;;;5053568;28;20057;-73
2023/07/03 11:40:26;;;;;;;4.32;1.30;;;18.60;99.90;;;;;;5052869;28;20044;-73
2023/07/03 11:43:16;;;;;;;2.58;1.10;;;18.90;99.90;;;;;;5053630;28;20029;-73
2023/07/03 11:45:50;;;;;;;5.30;1.05;;;19.10;99.90;;;;;;5053482;28;20347;-73
2023/07/03 11:48:38;;;;;;;1.05;0.70;;;19.40;99.90;;;;;;5052752;28;20126;-73
2023/07/03 11:51:13;;;;;;;1.80;0.98;;;19.20;99.90;;;;;;5052974;28;20108;-72
2023/07/03 11:53:52;;;;;;;2.00;0.77;;;19.20;99.90;;;;;;5052975;28;20028;-73
2023/07/03 11:56:32;;;;;;;1.83;0.80;;;19.10;99.90;;;;;;5052914;28;20029;-73
2023/07/03 11:59:05;;;;;;;2.67;0.75;;;19.00;99.90;;;;;;5052497;28;20489;-74
2023/07/03 12:01:30;;;;;;;2.20;0.82;;;18.70;99.90;;;;;;5051518;28;20025;-73
2023/07/03 12:04:10;;;;;;;3.50;1.02;;;18.40;99.90;;;;;;5053070;28;20040;-75
2023/07/03 12:06:41;;;;;;;6.43;1.80;;;17.60;99.90;;;;;;5053307;28;20150;-84
2023/07/03 12:09:20;;;;;;;9.02;2.00;;;16.90;99.90;;;;;;5052696;28;20025;-84
2023/07/03 12:12:03;;;;;;;7.93;1.45;;;16.40;99.90;;;;;;5051640;28;20029;-81
2023/07/03 12:14:40;;;;;;;6.10;1.60;;;15.40;99.90;;;;;;5053106;28;20028;-79
2023/07/03 12:17:16;;;;;;;6.15;1.73;;;14.50;99.90;;;;;;5052582;28;20055;-76
2023/07/03 12:19:41;;;;;;;5.55;1.67;;;14.20;99.90;;;;;;5052453;28;20059;-78
2023/07/03 12:22:07;;;;;;;5.43;1.55;;;14.00;99.90;;;;;;5052601;28;20178;-77
2023/07/03 12:24:33;;;;;;;4.05;1.02;;;13.80;99.90;;;;;;5052657;28;20068;-78
2023/07/03 12:27:03;;;;;;;3.50;1.13;;;13.60;99.90;;;;;;5052410;28;20029;-79
2023/07/03 12:29:32;;;;;;;3.70;1.40;;;13.80;99.90;;;;;;5052095;28;20067;-76
2023/07/03 12:32:07;;;;;;;2.70;1.00;;;14.00;99.90;;;;;;5051981;28;20052;-76
2023/07/03 12:34:36;;;;;;;3.15;1.10;;;14.10;99.90;;;;;;5052438;28;20218;-75
2023/07/03 12:37:07;;;;;;;2.15;0.93;;;13.90;99.90;;;;;;5051178;28;20028;-76
2023/07/03 12:39:33;;;;;;;2.25;0.90;;;13.90;99.90;;;;;;5052415;28;20319;-75
2023/07/03 12:42:20;;;;;;;2.92;1.10;;;13.90;99.90;;;;;;5051750;28;20025;-76
2023/07/03 12:44:46;;;;;;;1.67;0.85;;;14.00;99.90;;;;;;5052255;28;20358;-75
2023/07/03 12:47:18;;;;;;;3.35;1.00;;;14.00;99.90;;;;;;5051580;28;20033;-75
2023/07/03 12:49:55;;;;;;;1.92;1.23;;;14.10;99.90;;;;;;5052281;28;20097;-74
2023/07/03 12:52:26;;;;;;;1.65;0.70;;;14.20;99.90;;;;;;5051538;28;20096;-74
2023/07/03 12:54:53;;;;;;;0.47;0.47;;;14.30;99.90;;;;;;5051973;28;20088;-74